createdAt,value
2018-05-28T00:00:32.006Z,8.81
2018-05-28T00:01:32.477Z,8.82
2018-05-28T00:02:33.003Z,8.81
2018-05-28T00:03:33.424Z,8.79
2018-05-28T00:04:33.895Z,8.80
2018-05-28T00:05:34.370Z,8.80
2018-05-28T00:06:34.841Z,8.78
2018-05-28T00:07:35.316Z,8.79
2018-05-28T00:08:35.788Z,8.79
2018-05-28T00:09:36.262Z,8.78
2018-05-28T00:10:36.735Z,8.76
2018-05-28T00:11:37.207Z,8.77
2018-05-28T00:12:37.682Z,8.76
2018-05-28T00:13:38.158Z,8.76
2018-05-28T00:14:38.632Z,8.74
2018-05-28T00:15:39.107Z,8.74
2018-05-28T00:16:39.579Z,8.72
2018-05-28T00:17:40.107Z,8.73
2018-05-28T00:18:40.535Z,8.72
2018-05-28T00:19:41.004Z,8.72
2018-05-28T00:20:41.479Z,8.72
2018-05-28T00:21:41.955Z,8.72
2018-05-28T00:22:42.434Z,8.71
2018-05-28T00:23:42.906Z,8.72
2018-05-28T00:24:43.377Z,8.69
2018-05-28T00:25:43.852Z,8.70
2018-05-28T00:26:44.325Z,8.70
2018-05-28T00:27:44.800Z,8.68
2018-05-28T00:28:45.279Z,8.68
2018-05-28T00:29:45.786Z,8.67
2018-05-28T00:30:46.224Z,8.67
2018-05-28T00:31:46.698Z,8.68
2018-05-28T00:32:47.222Z,8.68
2018-05-28T00:33:47.647Z,8.66
2018-05-28T00:34:48.119Z,8.64
2018-05-28T00:35:48.590Z,8.65
2018-05-28T00:36:49.065Z,8.62
2018-05-28T00:37:49.537Z,8.63
2018-05-28T00:38:50.010Z,8.62
2018-05-28T00:39:50.482Z,8.62
2018-05-28T00:40:50.954Z,8.60
2018-05-28T00:41:51.428Z,8.60
2018-05-28T00:42:51.950Z,8.60
2018-05-28T00:43:52.371Z,8.58
2018-05-28T00:44:52.843Z,8.58
2018-05-28T00:45:53.315Z,8.58
2018-05-28T00:46:53.784Z,8.56
2018-05-28T00:47:54.257Z,8.57
2018-05-28T00:48:54.728Z,8.56
2018-05-28T00:49:55.199Z,8.54
2018-05-28T00:50:55.669Z,8.54
2018-05-28T00:51:56.143Z,8.54
2018-05-28T00:52:56.610Z,8.54
2018-05-28T00:53:57.083Z,8.53
2018-05-28T00:54:57.554Z,8.51
2018-05-28T00:55:58.023Z,8.52
2018-05-28T00:56:58.495Z,8.49
2018-05-28T00:57:58.967Z,8.48
2018-05-28T00:58:59.437Z,8.49
2018-05-28T00:59:59.908Z,8.48
2018-05-28T01:01:00.379Z,8.47
2018-05-28T01:02:00.858Z,8.46
2018-05-28T01:03:01.320Z,8.46
2018-05-28T01:04:01.794Z,8.46
2018-05-28T01:05:02.266Z,8.46
2018-05-28T01:06:02.736Z,8.44
2018-05-28T01:07:03.217Z,8.42
2018-05-28T01:08:03.679Z,8.41
2018-05-28T01:09:04.151Z,8.43
2018-05-28T01:10:04.625Z,8.41
2018-05-28T01:11:05.095Z,8.41
2018-05-28T01:12:05.568Z,8.40
2018-05-28T01:13:06.041Z,8.39
2018-05-28T01:14:06.515Z,8.39
2018-05-28T01:15:06.987Z,8.40
2018-05-28T01:16:07.458Z,8.37
2018-05-28T01:17:07.931Z,8.36
2018-05-28T01:18:08.410Z,8.36
2018-05-28T01:19:08.877Z,8.36
2018-05-28T01:20:09.353Z,8.34
2018-05-28T01:21:09.826Z,8.34
2018-05-28T01:22:10.299Z,8.36
2018-05-28T01:23:10.773Z,8.34
2018-05-28T01:24:11.248Z,8.33
2018-05-28T01:25:11.722Z,8.33
2018-05-28T01:26:12.197Z,8.32
2018-05-28T01:27:12.670Z,8.32
2018-05-28T01:28:13.144Z,8.32
2018-05-28T01:29:13.620Z,8.30
2018-05-28T01:30:14.099Z,8.30
2018-05-28T01:31:14.570Z,8.28
2018-05-28T01:32:15.043Z,8.28
2018-05-28T01:33:15.518Z,8.28
2018-05-28T01:34:15.992Z,8.28
2018-05-28T01:35:16.469Z,8.26
2018-05-28T01:36:16.958Z,8.26
2018-05-28T01:37:17.417Z,8.24
2018-05-28T01:38:17.891Z,8.26
2018-05-28T01:39:18.364Z,8.24
2018-05-28T01:40:18.840Z,8.24
2018-05-28T01:41:19.314Z,8.24
2018-05-28T01:42:19.788Z,8.23
2018-05-28T01:43:20.263Z,8.22
2018-05-28T01:44:20.735Z,8.23
2018-05-28T01:45:21.208Z,8.20
2018-05-28T01:46:21.682Z,8.20
2018-05-28T01:47:22.154Z,8.20
2018-05-28T01:48:22.674Z,8.20
2018-05-28T01:49:23.098Z,8.19
2018-05-28T01:50:23.571Z,8.18
2018-05-28T01:51:24.044Z,8.18
2018-05-28T01:52:24.517Z,8.17
2018-05-28T01:53:25.038Z,8.16
2018-05-28T01:54:25.460Z,8.16
2018-05-28T01:55:25.929Z,8.15
2018-05-28T01:56:26.401Z,8.14
2018-05-28T01:57:26.873Z,8.12
2018-05-28T01:58:27.345Z,8.13
2018-05-28T01:59:27.816Z,8.12
2018-05-28T02:00:28.286Z,8.12
2018-05-28T02:01:28.756Z,8.11
2018-05-28T02:02:29.226Z,8.10
2018-05-28T02:03:29.751Z,8.10
2018-05-28T02:04:30.170Z,8.08
2018-05-28T02:05:30.642Z,8.08
2018-05-28T02:06:31.115Z,8.06
2018-05-28T02:07:31.581Z,8.06
2018-05-28T02:08:32.102Z,8.06
2018-05-28T02:09:32.523Z,8.04
2018-05-28T02:10:32.996Z,8.05
2018-05-28T02:11:33.467Z,8.04
2018-05-28T02:12:33.936Z,8.03
2018-05-28T02:13:34.408Z,8.01
2018-05-28T02:14:34.880Z,8.02
2018-05-28T02:15:35.352Z,8.00
2018-05-28T02:16:35.825Z,8.00
2018-05-28T02:17:36.295Z,7.97
2018-05-28T02:18:36.767Z,7.97
2018-05-28T02:19:37.237Z,7.96
2018-05-28T02:20:37.710Z,7.96
2018-05-28T02:21:38.184Z,7.96
2018-05-28T02:22:38.656Z,7.95
2018-05-28T02:23:39.176Z,7.95
2018-05-28T02:24:39.599Z,7.94
2018-05-28T02:25:40.072Z,7.94
2018-05-28T02:26:40.547Z,7.94
2018-05-28T02:27:41.022Z,7.93
2018-05-28T02:28:41.492Z,7.93
2018-05-28T02:29:41.965Z,7.92
2018-05-28T02:30:42.442Z,7.92
2018-05-28T02:31:42.912Z,7.91
2018-05-28T02:32:43.388Z,7.90
2018-05-28T02:33:43.860Z,7.89
2018-05-28T02:34:44.336Z,7.89
2018-05-28T02:35:44.807Z,7.89
2018-05-28T02:36:45.282Z,7.88
2018-05-28T02:37:45.827Z,7.88
2018-05-28T02:38:46.238Z,7.87
2018-05-28T02:39:46.705Z,7.88
2018-05-28T02:40:47.180Z,7.86
2018-05-28T02:41:47.654Z,7.84
2018-05-28T02:42:48.129Z,7.84
2018-05-28T02:43:48.605Z,7.84
2018-05-28T02:44:49.080Z,7.84
2018-05-28T02:45:49.553Z,7.83
2018-05-28T02:46:50.028Z,7.83
2018-05-28T02:47:50.504Z,7.82
2018-05-28T02:48:51.030Z,7.82
2018-05-28T02:49:51.451Z,7.81
2018-05-28T02:50:51.927Z,7.81
2018-05-28T02:51:52.404Z,7.80
2018-05-28T02:52:52.871Z,7.81
2018-05-28T02:53:53.345Z,7.79
2018-05-28T02:54:53.820Z,7.78
2018-05-28T02:55:54.291Z,7.78
2018-05-28T02:56:54.766Z,7.78
2018-05-28T02:57:55.242Z,7.78
2018-05-28T02:58:55.763Z,7.76
2018-05-28T02:59:56.187Z,7.74
2018-05-28T03:00:56.658Z,7.75
2018-05-28T03:01:57.136Z,7.75
2018-05-28T03:02:57.601Z,7.72
2018-05-28T03:03:58.072Z,7.73
2018-05-28T03:04:58.553Z,7.72
2018-05-28T03:05:59.016Z,7.72
2018-05-28T03:06:59.490Z,7.72
2018-05-28T03:07:59.964Z,7.69
2018-05-28T03:09:00.480Z,7.70
2018-05-28T03:10:00.901Z,7.68
2018-05-28T03:12:01.844Z,7.68
2018-05-28T03:13:02.313Z,7.68
2018-05-28T03:14:02.785Z,7.67
2018-05-28T03:15:03.254Z,7.66
2018-05-28T03:16:03.726Z,7.64
2018-05-28T03:17:04.195Z,7.64
2018-05-28T03:18:04.669Z,7.64
2018-05-28T03:19:05.139Z,7.64
2018-05-28T03:20:05.608Z,7.62
2018-05-28T03:21:06.080Z,7.62
2018-05-28T03:22:06.556Z,7.60
2018-05-28T03:23:07.022Z,7.60
2018-05-28T03:24:07.544Z,7.59
2018-05-28T03:25:07.966Z,7.59
2018-05-28T03:26:08.435Z,7.58
2018-05-28T03:27:08.907Z,7.58
2018-05-28T03:28:09.380Z,7.56
2018-05-28T03:29:09.854Z,7.55
2018-05-28T03:30:10.323Z,7.56
2018-05-28T03:31:10.794Z,7.56
2018-05-28T03:32:11.267Z,7.55
2018-05-28T03:33:11.740Z,7.56
2018-05-28T03:34:12.217Z,7.54
2018-05-28T03:35:12.683Z,7.54
2018-05-28T03:36:13.157Z,7.53
2018-05-28T03:37:13.631Z,7.52
2018-05-28T03:38:14.104Z,7.52
2018-05-28T03:39:14.576Z,7.52
2018-05-28T03:40:15.049Z,7.52
2018-05-28T03:41:15.524Z,7.52
2018-05-28T03:42:16.003Z,7.51
2018-05-28T03:43:16.473Z,7.52
2018-05-28T03:44:16.943Z,7.52
2018-05-28T03:45:17.420Z,7.52
2018-05-28T03:46:17.893Z,7.51
2018-05-28T03:47:18.367Z,7.52
2018-05-28T03:48:18.841Z,7.52
2018-05-28T03:49:19.317Z,7.52
2018-05-28T03:50:19.794Z,7.53
2018-05-28T03:51:20.266Z,7.53
2018-05-28T03:52:20.739Z,7.54
2018-05-28T03:53:21.218Z,7.54
2018-05-28T03:54:21.689Z,7.55
2018-05-28T03:55:22.164Z,7.56
2018-05-28T03:56:22.639Z,7.56
2018-05-28T03:57:23.117Z,7.56
2018-05-28T03:58:23.588Z,7.56
2018-05-28T03:59:24.113Z,7.58
2018-05-28T04:00:24.538Z,7.58
2018-05-28T04:01:25.012Z,7.58
2018-05-28T04:02:25.484Z,7.58
2018-05-28T04:03:25.961Z,7.59
2018-05-28T04:04:26.432Z,7.61
2018-05-28T04:05:26.906Z,7.61
2018-05-28T04:06:27.383Z,7.62
2018-05-28T04:07:27.853Z,7.63
2018-05-28T04:08:28.326Z,7.64
2018-05-28T04:09:28.799Z,7.65
2018-05-28T04:10:29.350Z,7.65
2018-05-28T04:11:29.743Z,7.66
2018-05-28T04:12:30.216Z,7.66
2018-05-28T04:13:30.689Z,7.69
2018-05-28T04:14:31.161Z,7.68
2018-05-28T04:15:31.632Z,7.69
2018-05-28T04:16:32.108Z,7.70
2018-05-28T04:17:32.574Z,7.72
2018-05-28T04:18:33.046Z,7.73
2018-05-28T04:19:33.518Z,7.74
2018-05-28T04:20:33.988Z,7.72
2018-05-28T04:21:34.459Z,7.74
2018-05-28T04:22:34.932Z,7.76
2018-05-28T04:23:35.402Z,7.76
2018-05-28T04:24:35.872Z,7.76
2018-05-28T04:25:36.348Z,7.77
2018-05-28T04:26:36.817Z,7.79
2018-05-28T04:27:37.287Z,7.79
2018-05-28T04:28:37.756Z,7.82
2018-05-28T04:29:38.228Z,7.84
2018-05-28T04:30:38.710Z,7.85
2018-05-28T04:31:39.172Z,7.87
2018-05-28T04:32:39.643Z,7.89
2018-05-28T04:33:40.114Z,7.91
2018-05-28T04:34:40.637Z,7.94
2018-05-28T04:35:41.058Z,7.97
2018-05-28T04:36:41.530Z,7.98
2018-05-28T04:37:42.003Z,8.02
2018-05-28T04:38:42.476Z,8.04
2018-05-28T04:39:42.947Z,8.06
2018-05-28T04:40:43.418Z,8.09
2018-05-28T04:41:43.891Z,8.13
2018-05-28T04:42:44.369Z,8.15
2018-05-28T04:43:44.887Z,8.20
2018-05-28T04:44:45.309Z,8.22
2018-05-28T04:45:45.784Z,8.26
2018-05-28T04:46:46.260Z,8.29
2018-05-28T04:47:46.731Z,8.34
2018-05-28T04:48:47.206Z,8.37
2018-05-28T04:49:47.679Z,8.41
2018-05-28T04:50:48.154Z,8.45
2018-05-28T04:51:48.631Z,8.48
2018-05-28T04:52:49.103Z,8.54
2018-05-28T04:53:49.579Z,8.58
2018-05-28T04:54:50.054Z,8.62
2018-05-28T04:55:50.528Z,8.67
2018-05-28T04:56:51.001Z,8.71
2018-05-28T04:57:51.476Z,8.77
2018-05-28T04:58:51.953Z,8.82
2018-05-28T04:59:52.427Z,8.86
2018-05-28T05:00:52.904Z,8.92
2018-05-28T05:01:53.378Z,8.98
2018-05-28T05:02:53.859Z,9.00
2018-05-28T05:03:54.357Z,9.05
2018-05-28T05:04:54.804Z,9.11
2018-05-28T05:05:55.279Z,9.16
2018-05-28T05:06:55.757Z,9.22
2018-05-28T05:07:56.231Z,9.27
2018-05-28T05:08:56.706Z,9.32
2018-05-28T05:09:57.179Z,9.38
2018-05-28T05:10:57.653Z,9.44
2018-05-28T05:11:58.128Z,9.48
2018-05-28T05:12:58.604Z,9.54
2018-05-28T05:13:59.078Z,9.60
2018-05-28T05:14:59.604Z,9.65
2018-05-28T05:16:00.025Z,9.71
2018-05-28T05:17:00.501Z,9.75
2018-05-28T05:18:00.973Z,9.82
2018-05-28T05:19:01.448Z,9.87
2018-05-28T05:20:01.972Z,9.92
2018-05-28T05:21:02.394Z,9.98
2018-05-28T05:22:02.868Z,10.02
2018-05-28T05:23:03.342Z,10.08
2018-05-28T05:24:03.812Z,10.14
2018-05-28T05:25:04.339Z,10.21
2018-05-28T05:26:04.760Z,10.25
2018-05-28T05:27:05.236Z,10.30
2018-05-28T05:28:05.704Z,10.36
2018-05-28T05:29:06.177Z,10.42
2018-05-28T05:30:06.850Z,10.46
2018-05-28T05:31:07.121Z,10.52
2018-05-28T05:32:07.595Z,10.59
2018-05-28T05:33:08.065Z,10.64
2018-05-28T05:34:08.537Z,10.70
2018-05-28T05:35:09.009Z,10.72
2018-05-28T05:36:09.504Z,10.76
2018-05-28T05:37:09.951Z,10.85
2018-05-28T05:38:10.426Z,10.89
2018-05-28T05:39:10.898Z,10.94
2018-05-28T05:40:11.373Z,11.00
2018-05-28T05:41:11.840Z,11.07
2018-05-28T05:42:12.323Z,11.11
2018-05-28T05:43:12.790Z,11.16
2018-05-28T05:44:13.258Z,11.22
2018-05-28T05:45:13.729Z,11.28
2018-05-28T05:46:14.202Z,11.34
2018-05-28T05:47:14.675Z,11.39
2018-05-28T05:48:15.148Z,11.44
2018-05-28T05:49:15.621Z,11.51
2018-05-28T05:50:16.128Z,11.56
2018-05-28T05:51:16.570Z,11.60
2018-05-28T05:52:17.048Z,11.66
2018-05-28T05:53:17.517Z,11.72
2018-05-28T05:54:17.990Z,11.77
2018-05-28T05:55:18.463Z,11.82
2018-05-28T05:56:18.939Z,11.87
2018-05-28T05:57:19.413Z,11.92
2018-05-28T05:58:19.888Z,11.99
2018-05-28T05:59:20.370Z,12.04
2018-05-28T06:00:20.891Z,12.09
2018-05-28T06:01:21.315Z,12.14
2018-05-28T06:02:21.790Z,12.18
2018-05-28T06:03:22.272Z,12.23
2018-05-28T06:04:22.755Z,12.29
2018-05-28T06:05:23.220Z,12.35
2018-05-28T06:06:23.696Z,12.40
2018-05-28T06:07:24.172Z,12.44
2018-05-28T06:08:24.647Z,12.50
2018-05-28T06:09:25.123Z,12.56
2018-05-28T06:10:25.751Z,12.60
2018-05-28T06:11:26.079Z,12.66
2018-05-28T06:12:26.553Z,12.72
2018-05-28T06:13:27.029Z,12.76
2018-05-28T06:14:27.505Z,12.82
2018-05-28T06:15:27.982Z,12.87
2018-05-28T06:16:28.460Z,12.94
2018-05-28T06:17:28.935Z,12.99
2018-05-28T06:18:29.410Z,13.03
2018-05-28T06:19:29.887Z,13.08
2018-05-28T06:20:30.413Z,13.15
2018-05-28T06:21:30.836Z,13.18
2018-05-28T06:22:31.313Z,13.24
2018-05-28T06:23:31.789Z,13.30
2018-05-28T06:24:32.265Z,13.35
2018-05-28T06:25:32.790Z,13.40
2018-05-28T06:26:33.216Z,13.46
2018-05-28T06:27:33.688Z,13.51
2018-05-28T06:28:34.163Z,13.57
2018-05-28T06:29:34.639Z,13.62
2018-05-28T06:30:35.113Z,13.67
2018-05-28T06:32:36.063Z,13.78
2018-05-28T06:33:36.541Z,13.82
2018-05-28T06:34:37.010Z,13.88
2018-05-28T06:35:37.485Z,13.93
2018-05-28T06:36:37.960Z,13.98
2018-05-28T06:37:38.433Z,14.04
2018-05-28T06:38:38.907Z,14.09
2018-05-28T06:39:39.380Z,14.15
2018-05-28T06:40:39.858Z,14.19
2018-05-28T06:41:40.331Z,14.24
2018-05-28T06:42:40.802Z,14.29
2018-05-28T06:43:41.277Z,14.33
2018-05-28T06:44:41.751Z,14.38
2018-05-28T06:45:42.273Z,14.44
2018-05-28T06:46:42.692Z,14.49
2018-05-28T06:47:43.167Z,14.54
2018-05-28T06:48:43.639Z,14.60
2018-05-28T06:49:44.113Z,14.64
2018-05-28T06:50:44.585Z,14.69
2018-05-28T06:51:45.059Z,14.74
2018-05-28T06:52:45.534Z,14.81
2018-05-28T06:53:46.007Z,14.84
2018-05-28T06:54:46.475Z,14.89
2018-05-28T06:55:46.998Z,14.94
2018-05-28T06:56:47.424Z,14.99
2018-05-28T06:57:47.893Z,15.03
2018-05-28T06:58:48.364Z,15.09
2018-05-28T06:59:48.843Z,15.13
2018-05-28T07:00:49.309Z,15.18
2018-05-28T07:01:49.781Z,15.22
2018-05-28T07:02:50.255Z,15.26
2018-05-28T07:03:50.728Z,15.33
2018-05-28T07:04:51.204Z,15.36
2018-05-28T07:05:51.723Z,15.42
2018-05-28T07:06:52.149Z,15.46
2018-05-28T07:07:52.620Z,15.50
2018-05-28T07:08:53.094Z,15.54
2018-05-28T07:09:53.564Z,15.59
2018-05-28T07:10:54.038Z,15.64
2018-05-28T07:11:54.513Z,15.71
2018-05-28T07:12:54.988Z,15.76
2018-05-28T07:13:55.461Z,15.81
2018-05-28T07:14:55.937Z,15.83
2018-05-28T07:15:56.411Z,15.88
2018-05-28T07:16:56.887Z,15.93
2018-05-28T07:17:57.364Z,15.99
2018-05-28T07:18:57.837Z,16.02
2018-05-28T07:19:58.313Z,16.08
2018-05-28T07:20:58.789Z,16.13
2018-05-28T07:21:59.264Z,16.19
2018-05-28T07:22:59.738Z,16.23
2018-05-28T07:24:00.216Z,16.26
2018-05-28T07:25:00.694Z,16.32
2018-05-28T07:26:01.171Z,16.36
2018-05-28T07:27:01.650Z,16.42
2018-05-28T07:28:02.125Z,16.48
2018-05-28T07:29:02.601Z,16.52
2018-05-28T07:30:03.076Z,16.58
2018-05-28T07:31:03.558Z,16.63
2018-05-28T07:32:04.031Z,16.68
2018-05-28T07:33:04.512Z,16.74
2018-05-28T07:34:04.985Z,16.77
2018-05-28T07:35:05.662Z,16.83
2018-05-28T07:36:05.989Z,16.88
2018-05-28T07:37:06.413Z,16.94
2018-05-28T07:38:06.889Z,16.99
2018-05-28T07:39:07.371Z,17.05
2018-05-28T07:40:07.842Z,17.12
2018-05-28T07:41:08.319Z,17.17
2018-05-28T07:42:08.796Z,17.22
2018-05-28T07:43:09.273Z,17.27
2018-05-28T07:44:09.748Z,17.33
2018-05-28T07:45:10.227Z,17.38
2018-05-28T07:46:10.699Z,17.43
2018-05-28T07:47:11.177Z,17.50
2018-05-28T07:48:11.657Z,17.54
2018-05-28T07:49:12.129Z,17.60
2018-05-28T07:50:12.605Z,17.65
2018-05-28T07:51:13.079Z,17.71
2018-05-28T07:52:13.556Z,17.77
2018-05-28T07:53:14.030Z,17.82
2018-05-28T07:54:14.505Z,17.88
2018-05-28T07:55:14.981Z,17.93
2018-05-28T07:56:15.507Z,17.99
2018-05-28T07:57:15.933Z,18.03
2018-05-28T07:58:16.405Z,18.08
2018-05-28T07:59:16.881Z,18.14
2018-05-28T08:00:17.356Z,18.19
2018-05-28T08:01:17.885Z,18.25
2018-05-28T08:02:18.508Z,18.30
2018-05-28T08:03:18.781Z,18.37
2018-05-28T08:04:19.257Z,18.42
2018-05-28T08:05:19.731Z,18.47
2018-05-28T08:06:20.205Z,18.52
2018-05-28T08:07:20.682Z,18.60
2018-05-28T08:08:21.155Z,18.64
2018-05-28T08:09:21.628Z,18.69
2018-05-28T08:10:22.103Z,18.75
2018-05-28T08:11:22.628Z,18.80
2018-05-28T08:12:23.052Z,18.85
2018-05-28T08:13:23.528Z,18.89
2018-05-28T08:14:24.033Z,18.95
2018-05-28T08:15:24.475Z,19.00
2018-05-28T08:16:24.948Z,19.04
2018-05-28T08:17:25.425Z,19.10
2018-05-28T08:18:25.901Z,19.15
2018-05-28T08:19:26.370Z,19.20
2018-05-28T08:20:26.845Z,19.25
2018-05-28T08:21:27.320Z,19.31
2018-05-28T08:22:27.793Z,19.38
2018-05-28T08:23:28.269Z,19.44
2018-05-28T08:24:28.743Z,19.49
2018-05-28T08:25:29.216Z,19.56
2018-05-28T08:26:29.686Z,19.60
2018-05-28T08:27:30.161Z,19.65
2018-05-28T08:28:30.644Z,19.71
2018-05-28T08:29:31.109Z,19.78
2018-05-28T08:30:31.585Z,19.84
2018-05-28T08:31:32.109Z,19.90
2018-05-28T08:32:32.530Z,19.96
2018-05-28T08:33:33.005Z,20.02
2018-05-28T08:34:33.480Z,20.09
2018-05-28T08:35:33.952Z,20.15
2018-05-28T08:36:34.438Z,20.22
2018-05-28T08:37:34.900Z,20.27
2018-05-28T08:38:35.373Z,20.34
2018-05-28T08:39:35.848Z,20.38
2018-05-28T08:40:36.321Z,20.43
2018-05-28T08:41:36.850Z,20.49
2018-05-28T08:42:37.266Z,20.55
2018-05-28T08:43:37.740Z,20.59
2018-05-28T08:44:38.215Z,20.66
2018-05-28T08:45:38.718Z,20.71
2018-05-28T08:46:39.164Z,20.76
2018-05-28T08:47:39.635Z,20.80
2018-05-28T08:48:40.111Z,20.87
2018-05-28T08:49:40.586Z,20.93
2018-05-28T08:50:41.056Z,20.98
2018-05-28T08:51:41.532Z,21.04
2018-05-28T08:52:42.007Z,21.09
2018-05-28T08:53:42.479Z,21.13
2018-05-28T08:54:42.949Z,21.20
2018-05-28T08:55:43.428Z,21.25
2018-05-28T08:56:43.898Z,21.30
2018-05-28T08:57:44.373Z,21.37
2018-05-28T08:58:44.846Z,21.40
2018-05-28T08:59:45.320Z,21.46
2018-05-28T09:00:45.793Z,21.52
2018-05-28T09:01:46.268Z,21.55
2018-05-28T09:02:46.747Z,21.60
2018-05-28T09:03:47.215Z,21.65
2018-05-28T09:04:47.746Z,21.68
2018-05-28T09:05:48.163Z,21.72
2018-05-28T09:06:48.636Z,21.78
2018-05-28T09:07:49.108Z,21.79
2018-05-28T09:08:49.582Z,21.83
2018-05-28T09:09:50.057Z,21.87
2018-05-28T09:10:50.530Z,21.88
2018-05-28T09:11:51.008Z,21.91
2018-05-28T09:12:51.481Z,21.94
2018-05-28T09:13:51.951Z,21.96
2018-05-28T09:14:52.424Z,22.00
2018-05-28T09:15:52.901Z,22.02
2018-05-28T09:16:53.372Z,22.06
2018-05-28T09:17:53.845Z,22.10
2018-05-28T09:18:54.321Z,22.12
2018-05-28T09:19:54.795Z,22.14
2018-05-28T09:20:55.269Z,22.17
2018-05-28T09:21:55.741Z,22.21
2018-05-28T09:22:56.215Z,22.24
2018-05-28T09:23:56.689Z,22.29
2018-05-28T09:24:57.166Z,22.34
2018-05-28T09:25:57.636Z,22.38
2018-05-28T09:26:58.163Z,22.41
2018-05-28T09:27:58.587Z,22.43
2018-05-28T09:28:59.058Z,22.46
2018-05-28T09:29:59.533Z,22.48
2018-05-28T09:31:00.008Z,22.50
2018-05-28T09:32:00.532Z,22.52
2018-05-28T09:33:00.957Z,22.55
2018-05-28T09:34:01.432Z,22.54
2018-05-28T09:35:01.909Z,22.55
2018-05-28T09:36:02.581Z,22.59
2018-05-28T09:37:02.854Z,22.59
2018-05-28T09:38:03.327Z,22.61
2018-05-28T09:39:03.800Z,22.63
2018-05-28T09:40:04.276Z,22.64
2018-05-28T09:41:04.749Z,22.68
2018-05-28T09:42:05.226Z,22.67
2018-05-28T09:43:05.699Z,22.68
2018-05-28T09:44:06.173Z,22.68
2018-05-28T09:45:06.701Z,22.70
2018-05-28T09:46:07.121Z,22.71
2018-05-28T09:47:07.594Z,22.70
2018-05-28T09:48:08.070Z,22.70
2018-05-28T09:49:08.544Z,22.69
2018-05-28T09:50:09.020Z,22.69
2018-05-28T09:51:09.494Z,22.68
2018-05-28T09:52:10.012Z,22.67
2018-05-28T09:53:10.443Z,22.66
2018-05-28T09:54:10.916Z,22.67
2018-05-28T09:55:11.392Z,22.64
2018-05-28T09:56:11.868Z,22.63
2018-05-28T09:57:12.341Z,22.61
2018-05-28T09:58:12.814Z,22.60
2018-05-28T09:59:13.289Z,22.56
2018-05-28T10:00:13.763Z,22.56
2018-05-28T10:01:14.240Z,22.54
2018-05-28T10:02:14.712Z,22.53
2018-05-28T10:03:15.188Z,22.52
2018-05-28T10:04:15.663Z,22.50
2018-05-28T10:05:16.138Z,22.48
2018-05-28T10:06:16.640Z,22.47
2018-05-28T10:07:17.087Z,22.46
2018-05-28T10:08:17.562Z,22.46
2018-05-28T10:09:18.036Z,22.45
2018-05-28T10:10:18.514Z,22.42
2018-05-28T10:11:18.986Z,22.41
2018-05-28T10:12:19.461Z,22.38
2018-05-28T10:13:19.974Z,22.38
2018-05-28T10:14:20.410Z,22.37
2018-05-28T10:15:20.886Z,22.36
2018-05-28T10:16:21.359Z,22.36
2018-05-28T10:17:21.888Z,22.35
2018-05-28T10:18:22.312Z,22.32
2018-05-28T10:19:22.786Z,22.32
2018-05-28T10:20:23.266Z,22.31
2018-05-28T10:21:23.735Z,22.30
2018-05-28T10:22:24.260Z,22.30
2018-05-28T10:23:24.685Z,22.27
2018-05-28T10:24:25.184Z,22.26
2018-05-28T10:25:25.636Z,22.26
2018-05-28T10:26:26.111Z,22.24
2018-05-28T10:27:26.585Z,22.23
2018-05-28T10:28:27.060Z,22.23
2018-05-28T10:29:27.535Z,22.21
2018-05-28T10:30:28.012Z,22.20
2018-05-28T10:31:28.484Z,22.20
2018-05-28T10:32:28.963Z,22.20
2018-05-28T10:33:29.436Z,22.20
2018-05-28T10:34:29.913Z,22.19
2018-05-28T10:35:30.385Z,22.19
2018-05-28T10:36:30.871Z,22.18
2018-05-28T10:37:31.391Z,22.18
2018-05-28T10:38:31.811Z,22.16
2018-05-28T10:39:32.287Z,22.16
2018-05-28T10:40:32.764Z,22.17
2018-05-28T10:41:33.265Z,22.16
2018-05-28T10:42:33.714Z,22.15
2018-05-28T10:43:34.193Z,22.15
2018-05-28T10:44:34.663Z,22.14
2018-05-28T10:45:35.139Z,22.13
2018-05-28T10:46:35.615Z,22.14
2018-05-28T10:47:36.088Z,22.13
2018-05-28T10:48:36.565Z,22.12
2018-05-28T10:49:37.039Z,22.10
2018-05-28T10:50:37.518Z,22.10
2018-05-28T10:51:37.988Z,22.10
2018-05-28T10:52:38.464Z,22.12
2018-05-28T10:53:38.941Z,22.10
2018-05-28T10:54:39.416Z,22.10
2018-05-28T10:55:39.890Z,22.10
2018-05-28T10:56:40.370Z,22.10
2018-05-28T10:57:40.890Z,22.09
2018-05-28T10:58:41.319Z,22.08
2018-05-28T10:59:41.790Z,22.08
2018-05-28T11:00:42.270Z,22.08
2018-05-28T11:01:42.742Z,22.07
2018-05-28T11:02:43.269Z,22.06
2018-05-28T11:03:43.693Z,22.06
2018-05-28T11:04:44.167Z,22.06
2018-05-28T11:05:44.642Z,22.07
2018-05-28T11:06:45.118Z,22.06
2018-05-28T11:07:45.594Z,22.06
2018-05-28T11:08:46.069Z,22.06
2018-05-28T11:09:46.549Z,22.04
2018-05-28T11:10:47.020Z,22.04
2018-05-28T11:11:47.493Z,22.06
2018-05-28T11:12:47.970Z,22.05
2018-05-28T11:13:48.444Z,22.05
2018-05-28T11:14:48.922Z,22.06
2018-05-28T11:15:49.395Z,22.06
2018-05-28T11:16:49.872Z,22.06
2018-05-28T11:17:50.348Z,22.06
2018-05-28T11:18:50.824Z,22.07
2018-05-28T11:19:51.297Z,22.06
2018-05-28T11:20:51.771Z,22.07
2018-05-28T11:21:52.249Z,22.06
2018-05-28T11:22:52.727Z,22.06
2018-05-28T11:23:53.198Z,22.07
2018-05-28T11:24:53.675Z,22.04
2018-05-28T11:25:54.149Z,22.06
2018-05-28T11:26:54.626Z,22.06
2018-05-28T11:27:55.099Z,22.06
2018-05-28T11:28:55.581Z,22.06
2018-05-28T11:29:56.050Z,22.06
2018-05-28T11:30:56.525Z,22.06
2018-05-28T11:31:57.001Z,22.06
2018-05-28T11:33:57.953Z,22.07
2018-05-28T11:34:58.428Z,22.07
2018-05-28T11:35:58.905Z,22.07
2018-05-28T11:36:59.378Z,22.07
2018-05-28T11:37:59.854Z,22.07
2018-05-28T11:39:00.347Z,22.09
2018-05-28T11:40:00.813Z,22.08
2018-05-28T11:41:01.298Z,22.07
2018-05-28T11:42:01.758Z,22.09
2018-05-28T11:43:02.233Z,22.09
2018-05-28T11:44:02.709Z,22.10
2018-05-28T11:45:03.215Z,22.10
2018-05-28T11:46:03.659Z,22.10
2018-05-28T11:47:04.135Z,22.10
2018-05-28T11:48:04.619Z,22.11
2018-05-28T11:49:05.085Z,22.10
2018-05-28T11:50:05.560Z,22.10
2018-05-28T11:51:06.035Z,22.10
2018-05-28T11:52:06.510Z,22.11
2018-05-28T11:53:06.992Z,22.11
2018-05-28T11:54:07.496Z,22.12
2018-05-28T11:55:07.943Z,22.12
2018-05-28T11:56:08.417Z,22.10
2018-05-28T11:57:08.889Z,22.11
2018-05-28T11:58:09.366Z,22.11
2018-05-28T11:59:09.840Z,22.12
2018-05-28T12:00:10.315Z,22.12
2018-05-28T12:01:10.853Z,22.10
2018-05-28T12:02:11.268Z,22.13
2018-05-28T12:03:11.743Z,22.12
2018-05-28T12:04:12.218Z,22.13
2018-05-28T12:05:12.698Z,22.12
2018-05-28T12:06:13.168Z,22.13
2018-05-28T12:07:13.648Z,22.16
2018-05-28T12:08:14.120Z,22.14
2018-05-28T12:09:14.597Z,22.15
2018-05-28T12:10:15.071Z,22.15
2018-05-28T12:12:16.031Z,22.16
2018-05-28T12:13:16.504Z,22.16
2018-05-28T12:14:16.974Z,22.18
2018-05-28T12:15:17.457Z,22.16
2018-05-28T12:16:17.927Z,22.17
2018-05-28T12:17:18.401Z,22.16
2018-05-28T12:18:18.878Z,22.15
2018-05-28T12:19:19.354Z,22.18
2018-05-28T12:20:19.829Z,22.17
2018-05-28T12:21:20.303Z,22.18
2018-05-28T12:22:20.781Z,22.16
2018-05-28T12:23:21.256Z,22.16
2018-05-28T12:24:21.731Z,22.18
2018-05-28T12:25:22.208Z,22.17
2018-05-28T12:26:22.683Z,22.16
2018-05-28T12:27:23.159Z,22.16
2018-05-28T12:28:23.634Z,22.16
2018-05-28T12:29:24.110Z,22.15
2018-05-28T12:30:24.586Z,22.16
2018-05-28T12:31:25.066Z,22.15
2018-05-28T12:32:25.537Z,22.16
2018-05-28T12:33:26.014Z,22.17
2018-05-28T12:34:26.489Z,22.16
2018-05-28T12:35:26.968Z,22.17
2018-05-28T12:37:27.917Z,22.18
2018-05-28T12:38:28.442Z,22.20
2018-05-28T12:39:28.869Z,22.18
2018-05-28T12:40:29.343Z,22.19
2018-05-28T12:41:29.819Z,22.20
2018-05-28T12:42:30.343Z,22.20
2018-05-28T12:43:30.773Z,22.21
2018-05-28T12:44:31.244Z,22.22
2018-05-28T12:45:31.924Z,22.21
2018-05-28T12:46:32.200Z,22.22
2018-05-28T12:47:32.673Z,22.22
2018-05-28T12:48:33.148Z,22.22
2018-05-28T12:49:33.629Z,22.22
2018-05-28T12:50:34.100Z,22.22
2018-05-28T12:51:34.577Z,22.22
2018-05-28T12:52:35.051Z,22.22
2018-05-28T12:53:35.528Z,22.22
2018-05-28T12:54:36.003Z,22.24
2018-05-28T12:55:36.485Z,22.22
2018-05-28T12:56:36.954Z,22.22
2018-05-28T12:57:37.432Z,22.23
2018-05-28T12:58:37.907Z,22.22
2018-05-28T12:59:38.382Z,22.24
2018-05-28T13:00:38.858Z,22.23
2018-05-28T13:01:39.333Z,22.23
2018-05-28T13:02:39.808Z,22.22
2018-05-28T13:03:40.336Z,22.21
2018-05-28T13:04:40.760Z,22.21
2018-05-28T13:05:41.236Z,22.22
2018-05-28T13:06:41.711Z,22.21
2018-05-28T13:07:42.189Z,22.20
2018-05-28T13:08:42.662Z,22.21
2018-05-28T13:09:43.140Z,22.19
2018-05-28T13:10:43.615Z,22.20
2018-05-28T13:11:44.091Z,22.18
2018-05-28T13:12:44.566Z,22.18
2018-05-28T13:13:45.042Z,22.19